sensor_id;sensor_type;location;lat;lon;timestamp;P1;durP1;ratioP1;P2;durP2;ratioP2
31390;SDS011;18022;45.492;11.548;2022-08-19T06:13:33;4.00;;;1.65;;
31390;SDS011;18022;45.492;11.548;2022-08-19T06:15:59;7.40;;;2.25;;
31390;SDS011;18022;45.492;11.548;2022-08-19T06:18:25;4.10;;;1.30;;
31390;SDS011;18022;45.492;11.548;2022-08-19T06:20:51;3.85;;;1.38;;
31390;SDS011;18022;45.492;11.548;2022-08-19T06:23:17;6.17;;;2.40;;
31390;SDS011;18022;45.492;11.548;2022-08-19T06:25:45;7.70;;;1.40;;
31390;SDS011;18022;45.492;11.548;2022-08-19T06:28:10;5.15;;;1.55;;
31390;SDS011;18022;45.492;11.548;2022-08-19T06:30:36;3.17;;;1.30;;
31390;SDS011;18022;45.492;11.548;2022-08-19T06:33:02;4.97;;;2.00;;
31390;SDS011;18022;45.492;11.548;2022-08-19T06:35:28;5.53;;;1.10;;
31390;SDS011;18022;45.492;11.548;2022-08-19T06:37:54;9.13;;;1.98;;
31390;SDS011;18022;45.492;11.548;2022-08-19T06:40:20;2.72;;;1.10;;
31390;SDS011;18022;45.492;11.548;2022-08-19T06:42:46;4.88;;;1.60;;
31390;SDS011;18022;45.492;11.548;2022-08-19T06:45:12;6.95;;;1.63;;
31390;SDS011;18022;45.492;11.548;2022-08-19T06:47:37;3.92;;;1.17;;
31390;SDS011;18022;45.492;11.548;2022-08-19T06:50:03;6.70;;;1.80;;
31390;SDS011;18022;45.492;11.548;2022-08-19T06:52:30;4.10;;;1.48;;
31390;SDS011;18022;45.492;11.548;2022-08-19T06:54:58;10.13;;;2.53;;
31390;SDS011;18022;45.492;11.548;2022-08-19T06:57:24;6.55;;;1.75;;
31390;SDS011;18022;45.492;11.548;2022-08-19T06:59:51;5.53;;;1.23;;
31390;SDS011;18022;45.492;11.548;2022-08-19T07:02:17;6.93;;;1.52;;
31390;SDS011;18022;45.492;11.548;2022-08-19T07:04:43;3.17;;;1.47;;
31390;SDS011;18022;45.492;11.548;2022-08-19T07:07:11;5.70;;;1.30;;
31390;SDS011;18022;45.492;11.548;2022-08-19T07:09:41;5.80;;;1.25;;
31390;SDS011;18022;45.492;11.548;2022-08-19T07:12:09;4.43;;;1.02;;
31390;SDS011;18022;45.492;11.548;2022-08-19T07:14:37;4.90;;;1.48;;
31390;SDS011;18022;45.492;11.548;2022-08-19T07:17:04;4.00;;;1.40;;
31390;SDS011;18022;45.492;11.548;2022-08-19T07:19:32;5.68;;;1.73;;
31390;SDS011;18022;45.492;11.548;2022-08-19T07:22:00;4.57;;;1.10;;
31390;SDS011;18022;45.492;11.548;2022-08-19T07:24:27;5.97;;;1.50;;
31390;SDS011;18022;45.492;11.548;2022-08-19T07:26:54;5.05;;;2.00;;
31390;SDS011;18022;45.492;11.548;2022-08-19T07:29:31;2.65;;;1.58;;
31390;SDS011;18022;45.492;11.548;2022-08-19T07:31:59;8.40;;;1.35;;
31390;SDS011;18022;45.492;11.548;2022-08-19T07:34:27;3.15;;;1.17;;
31390;SDS011;18022;45.492;11.548;2022-08-19T07:36:55;5.20;;;1.38;;
31390;SDS011;18022;45.492;11.548;2022-08-19T07:39:22;3.78;;;1.15;;
31390;SDS011;18022;45.492;11.548;2022-08-19T07:41:50;3.33;;;1.30;;
31390;SDS011;18022;45.492;11.548;2022-08-19T07:44:17;3.30;;;1.35;;
31390;SDS011;18022;45.492;11.548;2022-08-19T07:46:47;2.38;;;0.82;;
31390;SDS011;18022;45.492;11.548;2022-08-19T07:49:15;5.63;;;1.30;;
31390;SDS011;18022;45.492;11.548;2022-08-19T07:51:49;6.05;;;1.42;;
31390;SDS011;18022;45.492;11.548;2022-08-19T07:54:26;7.22;;;1.33;;
31390;SDS011;18022;45.492;11.548;2022-08-19T07:56:54;5.30;;;1.75;;
31390;SDS011;18022;45.492;11.548;2022-08-19T07:59:21;3.28;;;1.17;;
31390;SDS011;18022;45.492;11.548;2022-08-19T08:01:48;3.80;;;1.33;;
31390;SDS011;18022;45.492;11.548;2022-08-19T08:04:15;4.95;;;1.33;;
31390;SDS011;18022;45.492;11.548;2022-08-19T08:07:00;2.78;;;1.15;;
31390;SDS011;18022;45.492;11.548;2022-08-19T08:09:45;9.10;;;2.40;;
31390;SDS011;18022;45.492;11.548;2022-08-19T08:12:15;8.70;;;2.42;;
31390;SDS011;18022;45.492;11.548;2022-08-19T08:17:17;4.05;;;2.13;;
31390;SDS011;18022;45.492;11.548;2022-08-19T08:19:44;7.40;;;2.22;;
31390;SDS011;18022;45.492;11.548;2022-08-19T08:22:13;4.47;;;1.90;;
31390;SDS011;18022;45.492;11.548;2022-08-19T08:25:07;7.57;;;2.75;;
31390;SDS011;18022;45.492;11.548;2022-08-19T08:27:42;7.30;;;3.15;;
31390;SDS011;18022;45.492;11.548;2022-08-19T08:30:19;5.70;;;1.77;;
31390;SDS011;18022;45.492;11.548;2022-08-19T08:35:14;7.47;;;2.25;;
31390;SDS011;18022;45.492;11.548;2022-08-19T08:37:41;2.08;;;1.65;;
31390;SDS011;18022;45.492;11.548;2022-08-19T08:43:02;5.60;;;1.90;;
31390;SDS011;18022;45.492;11.548;2022-08-19T08:45:33;4.97;;;1.00;;
31390;SDS011;18022;45.492;11.548;2022-08-19T08:48:02;5.10;;;1.02;;
31390;SDS011;18022;45.492;11.548;2022-08-19T08:50:37;3.83;;;1.10;;
31390;SDS011;18022;45.492;11.548;2022-08-19T08:53:07;3.95;;;1.10;;
31390;SDS011;18022;45.492;11.548;2022-08-19T08:55:35;4.22;;;0.90;;
31390;SDS011;18022;45.492;11.548;2022-08-19T08:58:03;3.10;;;0.80;;
31390;SDS011;18022;45.492;11.548;2022-08-19T09:00:38;4.07;;;1.10;;
31390;SDS011;18022;45.492;11.548;2022-08-19T09:08:48;4.95;;;1.73;;
31390;SDS011;18022;45.492;11.548;2022-08-19T09:11:38;3.67;;;1.40;;
31390;SDS011;18022;45.492;11.548;2022-08-19T09:14:12;4.63;;;1.27;;
31390;SDS011;18022;45.492;11.548;2022-08-19T09:17:00;4.55;;;1.15;;
31390;SDS011;18022;45.492;11.548;2022-08-19T09:19:28;3.75;;;1.00;;
31390;SDS011;18022;45.492;11.548;2022-08-19T09:21:55;3.40;;;0.90;;
31390;SDS011;18022;45.492;11.548;2022-08-19T09:24:20;3.72;;;0.80;;
31390;SDS011;18022;45.492;11.548;2022-08-19T09:26:46;2.88;;;0.77;;
31390;SDS011;18022;45.492;11.548;2022-08-19T09:29:12;2.50;;;0.82;;
31390;SDS011;18022;45.492;11.548;2022-08-19T09:31:38;7.32;;;1.85;;
31390;SDS011;18022;45.492;11.548;2022-08-19T09:34:04;5.50;;;1.48;;
31390;SDS011;18022;45.492;11.548;2022-08-19T09:36:30;1.45;;;0.80;;
31390;SDS011;18022;45.492;11.548;2022-08-19T09:39:01;5.18;;;1.30;;
31390;SDS011;18022;45.492;11.548;2022-08-19T09:41:31;2.83;;;1.10;;
31390;SDS011;18022;45.492;11.548;2022-08-19T09:43:57;2.55;;;1.08;;
31390;SDS011;18022;45.492;11.548;2022-08-19T09:46:25;3.65;;;1.52;;
31390;SDS011;18022;45.492;11.548;2022-08-19T09:48:53;4.30;;;1.10;;
31390;SDS011;18022;45.492;11.548;2022-08-19T09:51:21;3.22;;;1.30;;
31390;SDS011;18022;45.492;11.548;2022-08-19T09:53:49;3.08;;;0.90;;
31390;SDS011;18022;45.492;11.548;2022-08-19T09:56:17;6.90;;;1.30;;
31390;SDS011;18022;45.492;11.548;2022-08-19T09:58:44;2.08;;;1.00;;
31390;SDS011;18022;45.492;11.548;2022-08-19T10:01:15;2.67;;;1.23;;
31390;SDS011;18022;45.492;11.548;2022-08-19T10:03:50;4.72;;;1.10;;
31390;SDS011;18022;45.492;11.548;2022-08-19T10:06:18;3.15;;;1.10;;
31390;SDS011;18022;45.492;11.548;2022-08-19T10:08:49;2.50;;;0.98;;
31390;SDS011;18022;45.492;11.548;2022-08-19T10:11:16;3.50;;;0.98;;
31390;SDS011;18022;45.492;11.548;2022-08-19T10:13:44;5.68;;;1.45;;
31390;SDS011;18022;45.492;11.548;2022-08-19T10:16:15;5.80;;;1.45;;
31390;SDS011;18022;45.492;11.548;2022-08-19T10:18:44;4.78;;;1.13;;
31390;SDS011;18022;45.492;11.548;2022-08-19T10:23:45;7.70;;;1.20;;
31390;SDS011;18022;45.492;11.548;2022-08-19T10:26:14;3.78;;;1.52;;
31390;SDS011;18022;45.492;11.548;2022-08-19T10:28:43;5.45;;;1.30;;
31390;SDS011;18022;45.492;11.548;2022-08-19T10:31:13;2.25;;;0.80;;
31390;SDS011;18022;45.492;11.548;2022-08-19T10:33:42;4.57;;;1.00;;
31390;SDS011;18022;45.492;11.548;2022-08-19T10:36:28;2.60;;;0.90;;
31390;SDS011;18022;45.492;11.548;2022-08-19T10:38:57;3.63;;;0.88;;
31390;SDS011;18022;45.492;11.548;2022-08-19T10:41:26;4.53;;;0.70;;
31390;SDS011;18022;45.492;11.548;2022-08-19T10:43:55;4.95;;;1.27;;
31390;SDS011;18022;45.492;11.548;2022-08-19T10:46:27;2.53;;;0.82;;
31390;SDS011;18022;45.492;11.548;2022-08-19T10:48:57;2.63;;;0.93;;
31390;SDS011;18022;45.492;11.548;2022-08-19T10:51:24;6.82;;;1.10;;
31390;SDS011;18022;45.492;11.548;2022-08-19T10:54:08;6.43;;;1.08;;
31390;SDS011;18022;45.492;11.548;2022-08-19T10:56:34;2.20;;;1.30;;
31390;SDS011;18022;45.492;11.548;2022-08-19T10:59:20;1.45;;;0.85;;
31390;SDS011;18022;45.492;11.548;2022-08-19T11:01:46;2.00;;;0.95;;
31390;SDS011;18022;45.492;11.548;2022-08-19T11:04:13;2.20;;;0.88;;
31390;SDS011;18022;45.492;11.548;2022-08-19T11:06:40;2.92;;;0.90;;
31390;SDS011;18022;45.492;11.548;2022-08-19T11:09:08;3.08;;;0.88;;
31390;SDS011;18022;45.492;11.548;2022-08-19T11:11:34;3.13;;;1.25;;
31390;SDS011;18022;45.492;11.548;2022-08-19T11:14:15;4.82;;;1.38;;
31390;SDS011;18022;45.492;11.548;2022-08-19T11:16:43;3.95;;;1.02;;
31390;SDS011;18022;45.492;11.548;2022-08-19T11:19:10;0.98;;;0.70;;
31390;SDS011;18022;45.492;11.548;2022-08-19T11:21:41;1.67;;;0.80;;
31390;SDS011;18022;45.492;11.548;2022-08-19T11:24:12;1.63;;;0.77;;
31390;SDS011;18022;45.492;11.548;2022-08-19T11:26:41;4.20;;;1.13;;
31390;SDS011;18022;45.492;11.548;2022-08-19T11:29:08;1.73;;;0.65;;
31390;SDS011;18022;45.492;11.548;2022-08-19T11:31:39;3.08;;;1.10;;
31390;SDS011;18022;45.492;11.548;2022-08-19T11:34:07;4.13;;;1.13;;
31390;SDS011;18022;45.492;11.548;2022-08-19T11:36:37;1.83;;;0.60;;
31390;SDS011;18022;45.492;11.548;2022-08-19T11:41:30;2.03;;;0.73;;
31390;SDS011;18022;45.492;11.548;2022-08-19T11:43:56;1.70;;;0.55;;
31390;SDS011;18022;45.492;11.548;2022-08-19T11:46:23;1.55;;;0.80;;
31390;SDS011;18022;45.492;11.548;2022-08-19T11:48:50;2.40;;;0.60;;
31390;SDS011;18022;45.492;11.548;2022-08-19T11:51:20;1.27;;;0.50;;
31390;SDS011;18022;45.492;11.548;2022-08-19T11:53:49;2.92;;;0.70;;
31390;SDS011;18022;45.492;11.548;2022-08-19T11:56:16;2.25;;;0.73;;
31390;SDS011;18022;45.492;11.548;2022-08-19T11:58:43;2.75;;;0.60;;
31390;SDS011;18022;45.492;11.548;2022-08-19T12:01:10;2.15;;;0.50;;
31390;SDS011;18022;45.492;11.548;2022-08-19T12:06:07;4.00;;;1.00;;
31390;SDS011;18022;45.492;11.548;2022-08-19T12:08:36;2.05;;;0.77;;
31390;SDS011;18022;45.492;11.548;2022-08-19T12:11:03;2.22;;;0.80;;
31390;SDS011;18022;45.492;11.548;2022-08-19T12:13:30;1.90;;;0.77;;
31390;SDS011;18022;45.492;11.548;2022-08-19T12:15:56;3.40;;;0.70;;
31390;SDS011;18022;45.492;11.548;2022-08-19T12:18:23;2.53;;;0.82;;
31390;SDS011;18022;45.492;11.548;2022-08-19T12:20:50;4.03;;;0.90;;
31390;SDS011;18022;45.492;11.548;2022-08-19T12:23:17;3.45;;;1.45;;
31390;SDS011;18022;45.492;11.548;2022-08-19T12:25:44;5.13;;;1.25;;
31390;SDS011;18022;45.492;11.548;2022-08-19T12:28:15;5.60;;;1.30;;
31390;SDS011;18022;45.492;11.548;2022-08-19T12:30:41;5.32;;;1.58;;
31390;SDS011;18022;45.492;11.548;2022-08-19T12:33:07;4.55;;;1.90;;
31390;SDS011;18022;45.492;11.548;2022-08-19T12:35:33;2.13;;;1.65;;
31390;SDS011;18022;45.492;11.548;2022-08-19T12:37:58;6.63;;;1.95;;
31390;SDS011;18022;45.492;11.548;2022-08-19T12:42:52;3.05;;;1.88;;
31390;SDS011;18022;45.492;11.548;2022-08-19T12:45:19;3.22;;;1.25;;
31390;SDS011;18022;45.492;11.548;2022-08-19T12:47:44;4.10;;;1.70;;
31390;SDS011;18022;45.492;11.548;2022-08-19T12:50:11;2.55;;;1.13;;
31390;SDS011;18022;45.492;11.548;2022-08-19T12:52:37;3.78;;;1.52;;
31390;SDS011;18022;45.492;11.548;2022-08-19T12:55:03;3.20;;;1.70;;
31390;SDS011;18022;45.492;11.548;2022-08-19T12:59:58;3.08;;;1.48;;
31390;SDS011;18022;45.492;11.548;2022-08-19T13:02:31;5.05;;;1.30;;
31390;SDS011;18022;45.492;11.548;2022-08-19T13:04:57;4.05;;;1.30;;
31390;SDS011;18022;45.492;11.548;2022-08-19T13:07:23;2.97;;;1.70;;
31390;SDS011;18022;45.492;11.548;2022-08-19T13:09:51;4.72;;;1.60;;
31390;SDS011;18022;45.492;11.548;2022-08-19T13:12:17;2.60;;;1.95;;
31390;SDS011;18022;45.492;11.548;2022-08-19T13:14:43;3.75;;;1.70;;
31390;SDS011;18022;45.492;11.548;2022-08-19T13:19:39;2.55;;;1.48;;
31390;SDS011;18022;45.492;11.548;2022-08-19T13:22:05;3.72;;;1.75;;
31390;SDS011;18022;45.492;11.548;2022-08-19T13:24:30;4.03;;;1.90;;
31390;SDS011;18022;45.492;11.548;2022-08-19T13:26:58;4.30;;;2.13;;
31390;SDS011;18022;45.492;11.548;2022-08-19T13:29:25;3.42;;;1.98;;
31390;SDS011;18022;45.492;11.548;2022-08-19T13:32:11;5.70;;;2.30;;
31390;SDS011;18022;45.492;11.548;2022-08-19T13:34:55;4.38;;;2.38;;
31390;SDS011;18022;45.492;11.548;2022-08-19T13:37:21;4.55;;;2.63;;
31390;SDS011;18022;45.492;11.548;2022-08-19T13:40:06;4.10;;;2.40;;
31390;SDS011;18022;45.492;11.548;2022-08-19T13:42:42;3.30;;;2.08;;
31390;SDS011;18022;45.492;11.548;2022-08-19T13:45:11;3.45;;;1.80;;
31390;SDS011;18022;45.492;11.548;2022-08-19T13:47:37;4.03;;;1.77;;
31390;SDS011;18022;45.492;11.548;2022-08-19T13:50:19;6.93;;;2.15;;
31390;SDS011;18022;45.492;11.548;2022-08-19T13:52:47;5.30;;;1.65;;
31390;SDS011;18022;45.492;11.548;2022-08-19T13:55:14;2.88;;;1.27;;
31390;SDS011;18022;45.492;11.548;2022-08-19T13:57:41;3.15;;;1.95;;
31390;SDS011;18022;45.492;11.548;2022-08-19T14:00:08;3.72;;;1.13;;
31390;SDS011;18022;45.492;11.548;2022-08-19T14:02:36;3.20;;;1.20;;
31390;SDS011;18022;45.492;11.548;2022-08-19T14:05:04;3.72;;;1.27;;
31390;SDS011;18022;45.492;11.548;2022-08-19T14:07:31;2.65;;;1.00;;
31390;SDS011;18022;45.492;11.548;2022-08-19T14:09:57;2.78;;;1.27;;
31390;SDS011;18022;45.492;11.548;2022-08-19T14:12:23;1.98;;;1.00;;
31390;SDS011;18022;45.492;11.548;2022-08-19T14:14:49;3.55;;;1.20;;
31390;SDS011;18022;45.492;11.548;2022-08-19T14:17:15;2.75;;;0.88;;
31390;SDS011;18022;45.492;11.548;2022-08-19T14:19:41;2.50;;;0.70;;
31390;SDS011;18022;45.492;11.548;2022-08-19T14:22:07;2.92;;;0.90;;
31390;SDS011;18022;45.492;11.548;2022-08-19T14:24:33;2.08;;;0.65;;
31390;SDS011;18022;45.492;11.548;2022-08-19T14:26:59;1.10;;;0.73;;
31390;SDS011;18022;45.492;11.548;2022-08-19T14:29:25;1.65;;;0.73;;
31390;SDS011;18022;45.492;11.548;2022-08-19T14:31:54;7.20;;;0.73;;
31390;SDS011;18022;45.492;11.548;2022-08-19T14:34:23;2.45;;;1.00;;
31390;SDS011;18022;45.492;11.548;2022-08-19T14:36:50;5.78;;;0.98;;
31390;SDS011;18022;45.492;11.548;2022-08-19T14:39:16;3.70;;;0.88;;
31390;SDS011;18022;45.492;11.548;2022-08-19T14:41:41;4.78;;;1.00;;
31390;SDS011;18022;45.492;11.548;2022-08-19T14:44:07;2.03;;;0.82;;
31390;SDS011;18022;45.492;11.548;2022-08-19T14:46:37;3.53;;;1.40;;
31390;SDS011;18022;45.492;11.548;2022-08-19T14:49:03;5.78;;;0.93;;
31390;SDS011;18022;45.492;11.548;2022-08-19T14:51:29;1.50;;;0.90;;
31390;SDS011;18022;45.492;11.548;2022-08-19T14:53:55;0.55;;;0.50;;
31390;SDS011;18022;45.492;11.548;2022-08-19T14:56:23;2.15;;;0.93;;
31390;SDS011;18022;45.492;11.548;2022-08-19T14:58:51;2.42;;;0.82;;
31390;SDS011;18022;45.492;11.548;2022-08-19T15:01:18;1.73;;;0.80;;
31390;SDS011;18022;45.492;11.548;2022-08-19T15:03:46;2.50;;;0.63;;
31390;SDS011;18022;45.492;11.548;2022-08-19T15:06:12;1.10;;;0.67;;
31390;SDS011;18022;45.492;11.548;2022-08-19T15:08:38;4.80;;;1.52;;
31390;SDS011;18022;45.492;11.548;2022-08-19T15:13:36;4.32;;;0.80;;
31390;SDS011;18022;45.492;11.548;2022-08-19T15:16:02;1.88;;;0.85;;
31390;SDS011;18022;45.492;11.548;2022-08-19T15:18:28;1.65;;;0.75;;
31390;SDS011;18022;45.492;11.548;2022-08-19T15:20:54;2.83;;;0.80;;
31390;SDS011;18022;45.492;11.548;2022-08-19T15:23:20;2.58;;;0.75;;
31390;SDS011;18022;45.492;11.548;2022-08-19T15:25:46;1.48;;;0.73;;
31390;SDS011;18022;45.492;11.548;2022-08-19T15:28:13;3.70;;;0.88;;
31390;SDS011;18022;45.492;11.548;2022-08-19T15:30:41;3.38;;;1.20;;
31390;SDS011;18022;45.492;11.548;2022-08-19T15:33:09;2.28;;;0.73;;
31390;SDS011;18022;45.492;11.548;2022-08-19T15:35:39;2.90;;;0.95;;
31390;SDS011;18022;45.492;11.548;2022-08-19T15:38:05;3.45;;;0.70;;
31390;SDS011;18022;45.492;11.548;2022-08-19T15:40:32;2.42;;;1.00;;
31390;SDS011;18022;45.492;11.548;2022-08-19T15:42:58;2.65;;;0.70;;
31390;SDS011;18022;45.492;11.548;2022-08-19T15:45:24;3.30;;;0.93;;
31390;SDS011;18022;45.492;11.548;2022-08-19T15:47:57;2.10;;;1.05;;
31390;SDS011;18022;45.492;11.548;2022-08-19T15:50:27;2.13;;;0.70;;
31390;SDS011;18022;45.492;11.548;2022-08-19T15:53:00;2.78;;;0.70;;
31390;SDS011;18022;45.492;11.548;2022-08-19T15:55:30;2.22;;;0.65;;
31390;SDS011;18022;45.492;11.548;2022-08-19T15:57:59;1.75;;;0.90;;
31390;SDS011;18022;45.492;11.548;2022-08-19T16:00:48;1.90;;;0.70;;
31390;SDS011;18022;45.492;11.548;2022-08-19T16:03:32;1.92;;;0.70;;
31390;SDS011;18022;45.492;11.548;2022-08-19T16:06:16;3.13;;;0.80;;
31390;SDS011;18022;45.492;11.548;2022-08-19T16:08:55;4.07;;;0.70;;
31390;SDS011;18022;45.492;11.548;2022-08-19T16:11:23;1.88;;;0.80;;
31390;SDS011;18022;45.492;11.548;2022-08-19T16:13:52;3.20;;;0.88;;
31390;SDS011;18022;45.492;11.548;2022-08-19T16:16:22;7.00;;;0.85;;
31390;SDS011;18022;45.492;11.548;2022-08-19T16:18:53;4.70;;;0.98;;
31390;SDS011;18022;45.492;11.548;2022-08-19T16:21:19;3.88;;;0.80;;
31390;SDS011;18022;45.492;11.548;2022-08-19T16:23:46;2.00;;;0.77;;
31390;SDS011;18022;45.492;11.548;2022-08-19T16:26:13;2.78;;;0.85;;
31390;SDS011;18022;45.492;11.548;2022-08-19T16:28:40;2.53;;;0.80;;
31390;SDS011;18022;45.492;11.548;2022-08-19T16:31:07;3.08;;;0.60;;
31390;SDS011;18022;45.492;11.548;2022-08-19T16:33:33;0.65;;;0.65;;
31390;SDS011;18022;45.492;11.548;2022-08-19T16:35:58;2.25;;;0.70;;
31390;SDS011;18022;45.492;11.548;2022-08-19T16:38:25;1.05;;;0.50;;
31390;SDS011;18022;45.492;11.548;2022-08-19T16:40:51;4.83;;;0.60;;
31390;SDS011;18022;45.492;11.548;2022-08-19T16:43:19;2.47;;;0.60;;
31390;SDS011;18022;45.492;11.548;2022-08-19T16:45:49;3.05;;;0.50;;
31390;SDS011;18022;45.492;11.548;2022-08-19T16:48:24;1.90;;;0.68;;
31390;SDS011;18022;45.492;11.548;2022-08-19T16:50:54;0.90;;;0.55;;
31390;SDS011;18022;45.492;11.548;2022-08-19T16:53:22;2.53;;;0.70;;
31390;SDS011;18022;45.492;11.548;2022-08-19T16:55:56;2.03;;;0.70;;
31390;SDS011;18022;45.492;11.548;2022-08-19T16:58:23;1.00;;;0.70;;
31390;SDS011;18022;45.492;11.548;2022-08-19T17:00:52;6.88;;;0.73;;
31390;SDS011;18022;45.492;11.548;2022-08-19T17:03:18;1.13;;;0.68;;
31390;SDS011;18022;45.492;11.548;2022-08-19T17:05:49;3.95;;;0.80;;
31390;SDS011;18022;45.492;11.548;2022-08-19T17:08:17;2.15;;;0.60;;
31390;SDS011;18022;45.492;11.548;2022-08-19T17:10:44;1.95;;;0.70;;
31390;SDS011;18022;45.492;11.548;2022-08-19T17:13:11;1.87;;;0.63;;
31390;SDS011;18022;45.492;11.548;2022-08-19T17:15:40;3.45;;;0.73;;
31390;SDS011;18022;45.492;11.548;2022-08-19T17:18:08;1.70;;;1.02;;
31390;SDS011;18022;45.492;11.548;2022-08-19T17:20:35;2.83;;;0.60;;
31390;SDS011;18022;45.492;11.548;2022-08-19T17:23:02;1.95;;;0.80;;
31390;SDS011;18022;45.492;11.548;2022-08-19T17:25:29;1.90;;;0.80;;
31390;SDS011;18022;45.492;11.548;2022-08-19T17:27:56;2.40;;;0.80;;
31390;SDS011;18022;45.492;11.548;2022-08-19T17:30:22;4.95;;;0.95;;
31390;SDS011;18022;45.492;11.548;2022-08-19T17:32:48;3.30;;;0.75;;
31390;SDS011;18022;45.492;11.548;2022-08-19T17:35:15;2.90;;;0.85;;
31390;SDS011;18022;45.492;11.548;2022-08-19T17:37:43;2.60;;;0.70;;
31390;SDS011;18022;45.492;11.548;2022-08-19T17:40:09;2.30;;;0.98;;
31390;SDS011;18022;45.492;11.548;2022-08-19T17:42:36;7.53;;;1.00;;
31390;SDS011;18022;45.492;11.548;2022-08-19T17:45:02;2.25;;;0.90;;
31390;SDS011;18022;45.492;11.548;2022-08-19T17:47:29;2.47;;;0.65;;
31390;SDS011;18022;45.492;11.548;2022-08-19T17:49:56;3.10;;;0.80;;
31390;SDS011;18022;45.492;11.548;2022-08-19T17:52:22;1.80;;;0.77;;
31390;SDS011;18022;45.492;11.548;2022-08-19T17:54:48;3.90;;;0.85;;
31390;SDS011;18022;45.492;11.548;2022-08-19T17:57:14;3.72;;;1.05;;
31390;SDS011;18022;45.492;11.548;2022-08-19T17:59:40;6.95;;;1.10;;
31390;SDS011;18022;45.492;11.548;2022-08-19T18:02:06;6.07;;;0.90;;
31390;SDS011;18022;45.492;11.548;2022-08-19T18:04:34;1.48;;;0.90;;
31390;SDS011;18022;45.492;11.548;2022-08-19T18:07:00;4.38;;;0.77;;
31390;SDS011;18022;45.492;11.548;2022-08-19T18:09:28;1.83;;;0.82;;
31390;SDS011;18022;45.492;11.548;2022-08-19T18:11:56;6.28;;;1.10;;
31390;SDS011;18022;45.492;11.548;2022-08-19T18:14:25;3.10;;;0.80;;
31390;SDS011;18022;45.492;11.548;2022-08-19T18:16:55;2.92;;;0.82;;
31390;SDS011;18022;45.492;11.548;2022-08-19T18:19:22;4.38;;;1.15;;
31390;SDS011;18022;45.492;11.548;2022-08-19T18:21:48;2.17;;;1.08;;
31390;SDS011;18022;45.492;11.548;2022-08-19T18:24:14;4.43;;;1.10;;
31390;SDS011;18022;45.492;11.548;2022-08-19T18:26:40;6.78;;;1.10;;
31390;SDS011;18022;45.492;11.548;2022-08-19T18:29:06;7.60;;;1.30;;
31390;SDS011;18022;45.492;11.548;2022-08-19T18:31:36;5.13;;;1.05;;
31390;SDS011;18022;45.492;11.548;2022-08-19T18:34:03;6.28;;;1.92;;
31390;SDS011;18022;45.492;11.548;2022-08-19T18:36:30;2.83;;;0.85;;
31390;SDS011;18022;45.492;11.548;2022-08-19T18:38:57;4.68;;;1.00;;
31390;SDS011;18022;45.492;11.548;2022-08-19T18:41:41;7.93;;;0.98;;
31390;SDS011;18022;45.492;11.548;2022-08-19T18:44:25;3.55;;;1.10;;
31390;SDS011;18022;45.492;11.548;2022-08-19T18:47:09;5.32;;;0.90;;
31390;SDS011;18022;45.492;11.548;2022-08-19T18:49:54;4.40;;;1.00;;
31390;SDS011;18022;45.492;11.548;2022-08-19T18:52:20;3.22;;;1.48;;
31390;SDS011;18022;45.492;11.548;2022-08-19T18:54:49;5.25;;;1.00;;
31390;SDS011;18022;45.492;11.548;2022-08-19T18:57:15;3.92;;;1.10;;
31390;SDS011;18022;45.492;11.548;2022-08-19T18:59:42;2.77;;;0.90;;
31390;SDS011;18022;45.492;11.548;2022-08-19T19:02:09;8.07;;;2.38;;
31390;SDS011;18022;45.492;11.548;2022-08-19T19:04:38;3.90;;;1.13;;
31390;SDS011;18022;45.492;11.548;2022-08-19T19:07:04;4.75;;;1.40;;
31390;SDS011;18022;45.492;11.548;2022-08-19T19:09:30;2.53;;;1.00;;
31390;SDS011;18022;45.492;11.548;2022-08-19T19:11:57;2.78;;;0.98;;
31390;SDS011;18022;45.492;11.548;2022-08-19T19:14:27;3.53;;;1.70;;
31390;SDS011;18022;45.492;11.548;2022-08-19T19:16:57;5.03;;;1.05;;
31390;SDS011;18022;45.492;11.548;2022-08-19T19:19:24;4.15;;;1.23;;
31390;SDS011;18022;45.492;11.548;2022-08-19T19:21:50;2.92;;;1.20;;
31390;SDS011;18022;45.492;11.548;2022-08-19T19:24:21;2.70;;;0.80;;
31390;SDS011;18022;45.492;11.548;2022-08-19T19:26:50;4.38;;;1.10;;
31390;SDS011;18022;45.492;11.548;2022-08-19T19:31:42;5.68;;;1.02;;
31390;SDS011;18022;45.492;11.548;2022-08-19T19:34:10;2.30;;;0.80;;
31390;SDS011;18022;45.492;11.548;2022-08-19T19:36:37;4.70;;;1.00;;
31390;SDS011;18022;45.492;11.548;2022-08-19T19:39:04;5.47;;;1.00;;
31390;SDS011;18022;45.492;11.548;2022-08-19T19:41:30;6.63;;;0.80;;
31390;SDS011;18022;45.492;11.548;2022-08-19T19:43:57;5.43;;;1.20;;
31390;SDS011;18022;45.492;11.548;2022-08-19T19:46:25;5.82;;;1.27;;
31390;SDS011;18022;45.492;11.548;2022-08-19T19:48:54;4.30;;;0.85;;
31390;SDS011;18022;45.492;11.548;2022-08-19T19:51:21;3.50;;;1.00;;
31390;SDS011;18022;45.492;11.548;2022-08-19T19:53:47;5.35;;;1.00;;
31390;SDS011;18022;45.492;11.548;2022-08-19T19:56:13;3.13;;;0.63;;
31390;SDS011;18022;45.492;11.548;2022-08-19T19:58:39;4.07;;;1.00;;
31390;SDS011;18022;45.492;11.548;2022-08-19T20:01:06;2.78;;;0.90;;
31390;SDS011;18022;45.492;11.548;2022-08-19T20:03:36;1.65;;;0.90;;
31390;SDS011;18022;45.492;11.548;2022-08-19T20:06:07;5.55;;;0.80;;
31390;SDS011;18022;45.492;11.548;2022-08-19T20:08:34;6.03;;;1.10;;
31390;SDS011;18022;45.492;11.548;2022-08-19T20:11:32;4.10;;;0.70;;
31390;SDS011;18022;45.492;11.548;2022-08-19T20:13:59;5.85;;;1.23;;
31390;SDS011;18022;45.492;11.548;2022-08-19T20:16:28;4.68;;;1.25;;
31390;SDS011;18022;45.492;11.548;2022-08-19T20:18:55;3.97;;;0.88;;
31390;SDS011;18022;45.492;11.548;2022-08-19T20:21:26;5.97;;;1.00;;
31390;SDS011;18022;45.492;11.548;2022-08-19T20:23:56;1.45;;;0.68;;
31390;SDS011;18022;45.492;11.548;2022-08-19T20:26:23;5.88;;;1.05;;
31390;SDS011;18022;45.492;11.548;2022-08-19T20:28:49;4.28;;;1.08;;
31390;SDS011;18022;45.492;11.548;2022-08-19T20:31:15;4.35;;;0.98;;
31390;SDS011;18022;45.492;11.548;2022-08-19T20:33:42;7.78;;;1.48;;
31390;SDS011;18022;45.492;11.548;2022-08-19T20:36:09;3.78;;;1.25;;
31390;SDS011;18022;45.492;11.548;2022-08-19T20:38:35;4.05;;;1.10;;
31390;SDS011;18022;45.492;11.548;2022-08-19T20:41:01;2.33;;;0.90;;
31390;SDS011;18022;45.492;11.548;2022-08-19T20:43:28;6.00;;;1.20;;
31390;SDS011;18022;45.492;11.548;2022-08-19T20:45:55;2.63;;;0.90;;
31390;SDS011;18022;45.492;11.548;2022-08-19T20:48:20;4.63;;;1.10;;
31390;SDS011;18022;45.492;11.548;2022-08-19T20:50:46;2.75;;;1.20;;
31390;SDS011;18022;45.492;11.548;2022-08-19T20:53:13;3.20;;;0.82;;
31390;SDS011;18022;45.492;11.548;2022-08-19T20:55:45;2.63;;;1.10;;
31390;SDS011;18022;45.492;11.548;2022-08-19T20:58:14;6.35;;;1.00;;
31390;SDS011;18022;45.492;11.548;2022-08-19T21:00:41;7.32;;;1.50;;
31390;SDS011;18022;45.492;11.548;2022-08-19T21:03:09;3.25;;;0.95;;
31390;SDS011;18022;45.492;11.548;2022-08-19T21:05:36;1.80;;;0.60;;
31390;SDS011;18022;45.492;11.548;2022-08-19T21:08:01;13.50;;;1.27;;
31390;SDS011;18022;45.492;11.548;2022-08-19T21:10:28;2.83;;;0.60;;
31390;SDS011;18022;45.492;11.548;2022-08-19T21:12:54;5.20;;;0.80;;
31390;SDS011;18022;45.492;11.548;2022-08-19T21:15:20;2.33;;;1.10;;
31390;SDS011;18022;45.492;11.548;2022-08-19T21:17:46;6.20;;;1.40;;
31390;SDS011;18022;45.492;11.548;2022-08-19T21:20:12;2.85;;;0.90;;
31390;SDS011;18022;45.492;11.548;2022-08-19T21:22:39;1.67;;;1.05;;
31390;SDS011;18022;45.492;11.548;2022-08-19T21:25:05;4.25;;;0.90;;
31390;SDS011;18022;45.492;11.548;2022-08-19T21:27:31;4.57;;;1.13;;